Time;durP1;ratioP1;P1;durP2;ratioP2;P2;SDS_P1;SDS_P2;PMS_P1;PMS_P2;Temp;Humidity;BMP_temperature;BMP_pressure;BME280_temperature;BME280_humidity;BME280_pressure;Samples;Min_cycle;Max_cycle;Signal;HPM_P1;HPM_P2
2022/10/28 00:02:22;;;;;;;18.20;9.73;;;15.70;99.90;;;;;;4974695;28;20117;-65
2022/10/28 00:04:48;;;;;;;18.02;10.00;;;15.80;99.90;;;;;;4957575;28;20046;-66
2022/10/28 00:07:13;;;;;;;14.18;9.30;;;15.70;99.90;;;;;;4956602;28;20043;-66
2022/10/28 00:09:39;;;;;;;17.42;10.07;;;15.80;99.90;;;;;;4975233;28;20046;-66
2022/10/28 00:12:04;;;;;;;18.98;10.88;;;15.80;99.90;;;;;;4975520;28;20130;-65
2022/10/28 00:14:31;;;;;;;14.85;9.18;;;15.80;99.90;;;;;;4956773;28;20047;-66
2022/10/28 00:16:56;;;;;;;20.63;10.55;;;15.80;99.90;;;;;;4974424;28;20511;-66
2022/10/28 00:19:22;;;;;;;17.85;9.77;;;;;;;;;;4973606;28;20050;-66
2022/10/28 00:21:48;;;;;;;18.65;10.02;;;15.70;99.90;;;;;;4957226;28;20130;-66
2022/10/28 00:24:13;;;;;;;17.90;10.43;;;15.70;99.90;;;;;;4974955;28;20046;-66
2022/10/28 00:26:43;;;;;;;21.15;9.45;;;15.70;99.90;;;;;;4973497;28;20390;-66
2022/10/28 00:29:15;;;;;;;20.30;10.38;;;15.70;99.90;;;;;;4973719;28;20035;-65
2022/10/28 00:31:41;;;;;;;17.40;10.43;;;15.60;99.90;;;;;;4957384;28;20093;-66
2022/10/28 00:34:13;;;;;;;19.30;9.82;;;15.60;99.90;;;;;;4969943;28;20039;-65
2022/10/28 00:36:41;;;;;;;20.13;9.82;;;15.30;99.90;;;;;;4954698;28;20096;-65
2022/10/28 00:39:12;;;;;;;24.83;12.10;;;15.70;99.90;;;;;;4975048;28;20371;-66
2022/10/28 00:41:40;;;;;;;29.10;10.77;;;15.80;99.90;;;;;;4973654;28;20043;-65
2022/10/28 00:44:43;;;;;;;21.52;9.50;;;15.80;99.90;;;;;;4974466;28;20166;-66
2022/10/28 00:47:42;;;;;;;22.25;11.32;;;15.50;99.90;;;;;;4974678;28;20068;-66
2022/10/28 00:50:37;;;;;;;23.77;10.20;;;15.60;99.90;;;;;;4949751;28;20042;-66
2022/10/28 00:53:30;;;;;;;19.70;10.48;;;15.70;99.90;;;;;;4961806;28;20115;-66
2022/10/28 00:55:58;;;;;;;17.08;9.77;;;15.70;99.90;;;;;;4950373;29;20051;-66
2022/10/28 00:58:25;;;;;;;19.33;9.50;;;15.80;99.90;;;;;;4937935;29;20428;-66
2022/10/28 01:00:50;;;;;;;21.40;11.15;;;15.80;99.90;;;;;;4937220;29;20054;-66
2022/10/28 01:03:16;;;;;;;18.27;9.57;;;15.60;99.90;;;;;;4955153;29;20039;-66
2022/10/28 01:05:45;;;;;;;17.10;10.10;;;15.50;99.90;;;;;;4953834;29;20106;-66
2022/10/28 01:08:10;;;;;;;22.73;10.93;;;15.70;99.90;;;;;;4937206;29;20042;-66
2022/10/28 01:10:51;;;;;;;20.38;10.60;;;15.60;99.90;;;;;;4954834;29;20039;-66
2022/10/28 01:13:29;;;;;;;26.98;11.30;;;15.60;99.90;;;;;;4937759;29;20576;-66
2022/10/28 01:16:13;;;;;;;20.90;9.85;;;15.50;99.90;;;;;;4937365;29;20520;-66
2022/10/28 01:18:54;;;;;;;18.92;11.02;;;15.60;99.90;;;;;;4955140;29;20114;-65
2022/10/28 01:21:32;;;;;;;18.10;10.98;;;15.30;99.90;;;;;;4935922;29;20043;-66
2022/10/28 01:24:44;;;;;;;18.67;10.90;;;15.40;99.90;;;;;;4925428;29;20397;-65
2022/10/28 01:27:52;;;;;;;23.05;10.55;;;15.40;99.90;;;;;;4935173;29;20039;-65
2022/10/28 01:30:20;;;;;;;20.90;11.38;;;15.50;99.90;;;;;;4917317;29;20050;-66
2022/10/28 01:32:50;;;;;;;22.08;10.77;;;15.60;99.90;;;;;;4937511;29;20047;-66
2022/10/28 01:35:22;;;;;;;20.83;10.45;;;15.50;99.90;;;;;;4952877;28;20031;-66
2022/10/28 01:38:03;;;;;;;19.40;10.88;;;15.50;99.90;;;;;;4936926;29;20490;-66
2022/10/28 01:40:48;;;;;;;20.35;10.02;;;15.40;99.90;;;;;;4935567;29;20043;-66
2022/10/28 01:43:28;;;;;;;22.42;10.20;;;15.50;99.90;;;;;;4937258;29;20460;-66
2022/10/28 01:46:04;;;;;;;24.77;10.48;;;15.60;99.90;;;;;;4952892;29;20051;-65
2022/10/28 01:48:46;;;;;;;16.92;9.43;;;15.60;99.90;;;;;;4935823;29;20430;-66
2022/10/28 01:51:24;;;;;;;19.90;9.80;;;15.60;99.90;;;;;;4937401;29;20116;-65
2022/10/28 01:53:54;;;;;;;24.13;11.60;;;15.60;99.90;;;;;;4954233;28;20098;-65
2022/10/28 01:56:25;;;;;;;19.63;9.75;;;15.50;99.90;;;;;;4935902;29;20122;-66
2022/10/28 01:58:54;;;;;;;20.85;10.88;;;15.60;99.90;;;;;;4936348;29;20417;-65
2022/10/28 02:01:22;;;;;;;17.73;10.25;;;15.50;99.90;;;;;;4953699;29;20063;-66
2022/10/28 02:03:48;;;;;;;18.33;9.88;;;15.60;99.90;;;;;;4953464;28;20050;-66
2022/10/28 02:06:18;;;;;;;24.65;10.27;;;15.50;99.90;;;;;;4937306;29;20047;-65
2022/10/28 02:08:50;;;;;;;18.90;9.60;;;15.60;99.90;;;;;;4954677;29;20039;-66
2022/10/28 02:11:32;;;;;;;20.02;10.35;;;15.50;99.90;;;;;;4923871;29;20075;-66
2022/10/28 02:14:01;;;;;;;17.08;9.95;;;15.50;99.90;;;;;;4953550;29;20040;-65
2022/10/28 02:16:39;;;;;;;16.02;10.02;;;15.50;99.90;;;;;;4922963;29;20047;-66
2022/10/28 02:19:25;;;;;;;23.73;9.88;;;15.50;99.90;;;;;;4953742;29;20078;-66
2022/10/28 02:22:09;;;;;;;17.60;9.88;;;15.50;99.90;;;;;;4937091;29;20062;-66
2022/10/28 02:24:59;;;;;;;20.13;9.93;;;15.60;99.90;;;;;;4953895;29;20408;-66
2022/10/28 02:27:39;;;;;;;26.92;9.45;;;15.50;99.90;;;;;;4949578;28;20086;-65
2022/10/28 02:30:18;;;;;;;15.40;10.02;;;15.30;99.90;;;;;;4952240;28;20498;-65
2022/10/28 02:32:49;;;;;;;19.52;9.93;;;15.50;99.90;;;;;;4939488;29;20497;-66
2022/10/28 02:35:27;;;;;;;16.98;9.93;;;15.60;99.90;;;;;;4957829;29;20035;-65
2022/10/28 02:37:54;;;;;;;15.50;9.55;;;15.50;99.90;;;;;;4939604;29;20095;-65
2022/10/28 02:40:23;;;;;;;24.40;11.20;;;15.60;99.90;;;;;;4957717;28;20035;-65
2022/10/28 02:42:56;;;;;;;19.85;9.63;;;15.70;99.90;;;;;;4957497;29;20047;-65
2022/10/28 02:45:26;;;;;;;15.77;9.82;;;15.60;99.90;;;;;;4956226;29;20089;-66
2022/10/28 02:47:57;;;;;;;22.88;11.27;;;15.70;99.90;;;;;;4938287;29;20405;-66
2022/10/28 02:50:31;;;;;;;19.83;10.27;;;15.50;99.90;;;;;;4957129;29;20094;-66
2022/10/28 02:52:59;;;;;;;22.10;10.35;;;15.40;99.90;;;;;;4940168;29;20051;-66
2022/10/28 02:55:33;;;;;;;21.35;10.48;;;15.40;99.90;;;;;;4957038;28;20449;-66
2022/10/28 02:57:58;;;;;;;15.37;10.63;;;15.00;99.90;;;;;;4956736;29;20395;-66
2022/10/28 03:00:24;;;;;;;19.80;10.88;;;15.20;99.90;;;;;;4956332;29;20093;-66
2022/10/28 03:02:50;;;;;;;21.30;9.93;;;15.20;99.90;;;;;;4956735;29;20046;-66
2022/10/28 03:05:16;;;;;;;18.13;11.30;;;15.10;99.90;;;;;;4956873;29;20530;-65
2022/10/28 03:07:42;;;;;;;20.73;11.55;;;15.10;99.90;;;;;;4957083;29;20039;-66
2022/10/28 03:10:08;;;;;;;21.50;10.93;;;15.00;99.90;;;;;;4939262;29;20094;-66
2022/10/28 03:12:34;;;;;;;20.27;11.50;;;;;;;;;;4956845;29;20066;-66
2022/10/28 03:15:01;;;;;;;20.45;12.02;;;15.20;99.90;;;;;;4937772;29;20050;-66
2022/10/28 03:17:27;;;;;;;21.00;11.70;;;15.10;99.90;;;;;;4936488;29;20043;-66
2022/10/28 03:19:53;;;;;;;19.85;10.40;;;15.10;99.90;;;;;;4939675;29;20421;-66
2022/10/28 03:22:18;;;;;;;21.70;12.50;;;15.00;99.90;;;;;;4939492;29;20051;-65
2022/10/28 03:24:44;;;;;;;22.92;11.77;;;15.10;99.90;;;;;;4956609;29;20523;-66
2022/10/28 03:27:09;;;;;;;25.80;11.75;;;14.90;99.90;;;;;;4938741;29;20049;-66
2022/10/28 03:29:35;;;;;;;26.73;12.38;;;15.20;99.90;;;;;;4955115;29;20066;-66
2022/10/28 03:32:00;;;;;;;24.27;11.75;;;15.00;99.90;;;;;;4939365;29;20039;-66
2022/10/28 03:34:26;;;;;;;21.77;12.30;;;15.10;99.90;;;;;;4955793;29;20375;-65
2022/10/28 03:36:51;;;;;;;24.95;13.45;;;15.00;99.90;;;;;;4953548;29;20482;-65
2022/10/28 03:39:17;;;;;;;22.27;11.85;;;15.10;99.90;;;;;;4955706;28;20070;-65
2022/10/28 03:41:43;;;;;;;23.55;12.27;;;15.00;99.90;;;;;;4955694;29;20413;-66
2022/10/28 03:44:08;;;;;;;22.48;13.18;;;15.00;99.90;;;;;;4938302;29;20050;-65
2022/10/28 03:46:34;;;;;;;27.55;12.85;;;15.00;99.90;;;;;;4956288;29;20418;-65
2022/10/28 03:48:59;;;;;;;22.10;13.02;;;15.00;99.90;;;;;;4952605;29;20070;-65
2022/10/28 03:51:25;;;;;;;24.80;12.50;;;15.00;99.90;;;;;;4937947;29;20048;-65
2022/10/28 03:53:50;;;;;;;26.88;12.57;;;15.10;99.90;;;;;;4938997;29;20054;-65
2022/10/28 03:56:16;;;;;;;22.08;12.98;;;15.00;99.90;;;;;;4938842;29;20055;-65
2022/10/28 03:58:42;;;;;;;26.85;13.73;;;;;;;;;;4938064;29;20126;-65
2022/10/28 04:01:07;;;;;;;26.65;13.38;;;14.90;99.90;;;;;;4938287;29;20050;-65
2022/10/28 04:03:33;;;;;;;23.35;13.52;;;14.90;99.90;;;;;;4955460;29;20035;-65
2022/10/28 04:05:58;;;;;;;25.38;14.35;;;14.90;99.90;;;;;;4937784;29;20043;-66
2022/10/28 04:08:24;;;;;;;30.45;15.63;;;14.90;99.90;;;;;;4946969;29;20047;-66
2022/10/28 04:10:50;;;;;;;28.15;14.48;;;14.70;99.90;;;;;;4954744;29;20490;-66
2022/10/28 04:13:16;;;;;;;24.10;13.90;;;;;;;;;;4937421;29;20069;-65
2022/10/28 04:15:42;;;;;;;29.98;13.60;;;14.80;99.90;;;;;;4938767;29;20043;-65
2022/10/28 04:18:08;;;;;;;26.52;14.25;;;14.80;99.90;;;;;;4954095;29;20041;-65
2022/10/28 04:20:34;;;;;;;25.63;14.73;;;14.70;99.90;;;;;;4955346;29;20039;-65
2022/10/28 04:22:59;;;;;;;24.35;14.15;;;14.90;99.90;;;;;;4955727;29;20160;-65
2022/10/28 04:25:26;;;;;;;30.75;14.95;;;15.00;99.90;;;;;;4955535;29;20043;-65
2022/10/28 04:27:52;;;;;;;26.27;15.15;;;14.80;99.90;;;;;;4936955;29;20074;-66
2022/10/28 04:30:18;;;;;;;26.77;15.52;;;14.80;99.90;;;;;;4955442;29;20079;-65
2022/10/28 04:32:44;;;;;;;26.23;14.65;;;14.70;99.90;;;;;;4937516;29;20082;-65
2022/10/28 04:35:10;;;;;;;32.90;15.90;;;14.90;99.90;;;;;;4955494;29;20473;-65
2022/10/28 04:37:37;;;;;;;30.65;16.27;;;14.80;99.90;;;;;;4954269;29;20049;-66
2022/10/28 04:40:03;;;;;;;25.35;14.40;;;14.90;99.90;;;;;;4922693;29;20397;-65
2022/10/28 04:42:29;;;;;;;27.75;14.77;;;15.00;99.90;;;;;;4954354;29;20502;-65
2022/10/28 04:44:54;;;;;;;26.10;14.73;;;14.80;99.90;;;;;;4955335;29;20043;-65
2022/10/28 04:47:20;;;;;;;29.23;14.65;;;14.90;99.90;;;;;;4937737;29;20465;-65
2022/10/28 04:49:45;;;;;;;28.92;14.48;;;14.80;99.90;;;;;;4938046;29;20478;-66
2022/10/28 04:52:11;;;;;;;30.50;16.33;;;14.80;99.90;;;;;;4922103;29;20059;-65
2022/10/28 04:54:37;;;;;;;27.80;16.60;;;14.80;99.90;;;;;;4938286;29;20043;-65
2022/10/28 04:57:03;;;;;;;27.65;16.65;;;14.70;99.90;;;;;;4921166;29;20176;-66
2022/10/28 04:59:29;;;;;;;26.52;15.30;;;;;;;;;;4955290;29;20402;-66
2022/10/28 05:01:54;;;;;;;22.33;14.82;;;14.70;99.90;;;;;;4935334;29;20484;-66
2022/10/28 05:04:21;;;;;;;30.35;14.95;;;14.70;99.90;;;;;;4934889;29;20051;-65
2022/10/28 05:06:46;;;;;;;30.40;14.88;;;14.70;99.90;;;;;;4937874;29;20395;-65
2022/10/28 05:09:12;;;;;;;25.30;14.63;;;;;;;;;;4936667;29;20051;-65
2022/10/28 05:11:38;;;;;;;28.15;15.13;;;14.80;99.90;;;;;;4931121;28;20512;-65
2022/10/28 05:14:04;;;;;;;25.73;14.50;;;14.80;99.90;;;;;;4937783;29;20075;-65
2022/10/28 05:16:30;;;;;;;30.75;14.75;;;;;;;;;;4955125;29;20031;-65
2022/10/28 05:18:56;;;;;;;26.67;14.52;;;14.80;99.90;;;;;;4934862;29;20046;-65
2022/10/28 05:21:21;;;;;;;27.00;15.30;;;14.70;99.90;;;;;;4953998;29;20035;-65
2022/10/28 05:23:47;;;;;;;26.48;14.38;;;14.70;99.90;;;;;;4947320;29;20409;-65
2022/10/28 05:26:13;;;;;;;26.77;15.15;;;14.70;99.90;;;;;;4937446;29;20127;-65
2022/10/28 05:28:39;;;;;;;26.98;16.27;;;14.70;99.90;;;;;;4950455;29;20043;-66
2022/10/28 05:31:05;;;;;;;27.50;15.02;;;14.70;99.90;;;;;;4935474;29;20107;-65
2022/10/28 05:33:32;;;;;;;27.17;14.82;;;14.60;99.90;;;;;;4933410;29;20087;-66
2022/10/28 05:35:58;;;;;;;26.90;15.35;;;14.70;99.90;;;;;;4951567;29;20039;-65
2022/10/28 05:38:24;;;;;;;25.55;15.32;;;14.50;99.90;;;;;;4935459;29;20043;-65
2022/10/28 05:40:50;;;;;;;24.48;14.80;;;14.60;99.90;;;;;;4937313;29;20050;-65
2022/10/28 05:43:15;;;;;;;30.20;14.88;;;14.60;99.90;;;;;;4954698;29;20047;-66
2022/10/28 05:45:41;;;;;;;24.27;13.25;;;14.60;99.90;;;;;;4937472;29;20049;-65
2022/10/28 05:48:07;;;;;;;26.33;14.70;;;;;;;;;;4936849;29;20426;-65
2022/10/28 05:50:33;;;;;;;23.00;14.10;;;14.60;99.90;;;;;;4954696;29;20078;-66
2022/10/28 05:52:58;;;;;;;27.60;14.77;;;14.40;99.90;;;;;;4936397;29;20073;-66
2022/10/28 05:55:27;;;;;;;22.67;14.05;;;14.60;99.90;;;;;;4937045;29;20098;-66
2022/10/28 05:57:54;;;;;;;26.58;13.93;;;14.50;99.90;;;;;;4937287;29;20122;-65
2022/10/28 06:00:22;;;;;;;29.45;13.68;;;14.30;99.90;;;;;;4954643;29;20049;-65
2022/10/28 06:02:47;;;;;;;21.50;12.07;;;14.40;99.90;;;;;;4951683;28;20066;-65
2022/10/28 06:05:13;;;;;;;27.77;14.85;;;14.60;99.90;;;;;;4941541;28;20490;-66
2022/10/28 06:07:40;;;;;;;24.27;13.18;;;14.40;99.90;;;;;;4958206;29;20039;-65
2022/10/28 06:10:07;;;;;;;23.38;13.13;;;14.50;99.90;;;;;;4940330;29;20472;-66
2022/10/28 06:12:33;;;;;;;25.77;13.48;;;14.40;99.90;;;;;;4939946;29;20134;-66
2022/10/28 06:14:59;;;;;;;22.10;13.27;;;14.40;99.90;;;;;;4958367;29;20461;-65
2022/10/28 06:17:24;;;;;;;25.20;13.45;;;14.40;99.90;;;;;;4940183;29;20046;-65
2022/10/28 06:19:50;;;;;;;27.42;13.13;;;14.40;99.90;;;;;;4940764;29;20406;-65
2022/10/28 06:22:16;;;;;;;23.10;13.60;;;14.50;99.90;;;;;;4940620;29;20050;-65
2022/10/28 06:24:41;;;;;;;24.00;13.63;;;14.40;99.90;;;;;;4956107;28;20449;-66
2022/10/28 06:27:07;;;;;;;27.80;14.90;;;14.40;99.90;;;;;;4958057;29;20039;-66
2022/10/28 06:29:33;;;;;;;26.50;15.20;;;14.40;99.90;;;;;;4956554;29;20039;-65
2022/10/28 06:31:59;;;;;;;19.42;13.25;;;14.30;99.90;;;;;;4939784;29;20497;-66
2022/10/28 06:34:24;;;;;;;24.60;12.75;;;14.40;99.90;;;;;;4940471;29;20042;-65
2022/10/28 06:36:50;;;;;;;23.02;13.20;;;14.30;99.90;;;;;;4940360;29;20043;-65
2022/10/28 06:39:16;;;;;;;23.65;11.90;;;14.30;99.90;;;;;;4940204;29;20102;-66
2022/10/28 06:41:41;;;;;;;25.40;13.02;;;14.30;99.90;;;;;;4957419;29;20081;-66
2022/10/28 06:44:07;;;;;;;19.52;12.52;;;14.20;99.90;;;;;;4955664;29;20050;-66
2022/10/28 06:46:32;;;;;;;23.95;11.93;;;14.30;99.90;;;;;;4938819;29;20078;-66
2022/10/28 06:49:01;;;;;;;19.90;11.70;;;14.30;99.90;;;;;;4957226;29;20047;-66
2022/10/28 06:51:28;;;;;;;19.80;11.40;;;14.40;99.90;;;;;;4956431;28;20043;-66
2022/10/28 06:53:53;;;;;;;22.80;10.40;;;14.40;99.90;;;;;;4956401;28;20094;-66
2022/10/28 06:56:19;;;;;;;19.83;10.38;;;14.40;99.90;;;;;;4939841;29;20059;-66
2022/10/28 06:58:49;;;;;;;22.33;9.68;;;14.40;99.90;;;;;;4955999;28;20031;-66
2022/10/28 07:01:15;;;;;;;18.60;9.75;;;14.50;99.90;;;;;;4938731;28;20047;-65
2022/10/28 07:03:40;;;;;;;19.95;11.07;;;14.40;99.90;;;;;;4952927;28;20050;-65
2022/10/28 07:06:06;;;;;;;28.83;10.40;;;14.40;99.90;;;;;;4937087;29;20035;-65
2022/10/28 07:08:32;;;;;;;15.25;8.65;;;14.80;99.90;;;;;;4956665;28;20126;-66
2022/10/28 07:10:59;;;;;;;22.73;8.82;;;14.80;99.90;;;;;;4939437;28;20102;-65
2022/10/28 07:13:25;;;;;;;20.70;8.85;;;14.90;99.90;;;;;;4936337;28;20035;-65
2022/10/28 07:15:52;;;;;;;19.45;9.48;;;14.90;99.90;;;;;;4951084;29;20043;-65
2022/10/28 07:18:18;;;;;;;16.60;8.10;;;15.00;99.90;;;;;;4932852;29;20039;-65
2022/10/28 07:20:44;;;;;;;15.88;8.90;;;;;;;;;;4939513;29;20402;-65
2022/10/28 07:23:10;;;;;;;18.73;9.13;;;15.00;99.90;;;;;;4935014;28;20043;-65
2022/10/28 07:25:35;;;;;;;20.83;9.00;;;15.10;99.90;;;;;;4955921;28;20413;-65
2022/10/28 07:28:02;;;;;;;13.73;7.75;;;15.30;99.90;;;;;;4956176;28;20090;-65
2022/10/28 07:30:28;;;;;;;19.52;9.20;;;15.40;99.90;;;;;;4955104;28;20106;-65
2022/10/28 07:32:53;;;;;;;15.70;8.30;;;15.40;99.90;;;;;;4937553;28;20412;-65
2022/10/28 07:35:20;;;;;;;12.65;7.25;;;15.40;99.90;;;;;;4955889;28;20036;-65
2022/10/28 07:37:46;;;;;;;14.35;7.93;;;15.60;99.90;;;;;;4937117;29;20516;-66
2022/10/28 07:40:11;;;;;;;19.73;7.55;;;15.60;99.90;;;;;;4956279;29;20039;-65
2022/10/28 07:42:37;;;;;;;16.02;7.20;;;15.70;99.90;;;;;;4938754;28;20078;-65
2022/10/28 07:45:03;;;;;;;20.48;9.30;;;15.70;99.90;;;;;;4939094;29;20053;-65
2022/10/28 07:47:29;;;;;;;13.85;7.32;;;15.80;99.90;;;;;;4938480;29;20050;-64
2022/10/28 07:49:55;;;;;;;21.15;8.23;;;15.90;99.90;;;;;;4955890;28;20043;-66
2022/10/28 07:52:21;;;;;;;17.40;7.00;;;15.90;99.90;;;;;;4937214;29;20107;-65
2022/10/28 07:54:46;;;;;;;13.15;7.07;;;15.90;99.90;;;;;;4938920;29;20065;-66
2022/10/28 07:57:12;;;;;;;13.10;6.60;;;16.10;99.90;;;;;;4955884;29;20555;-65
2022/10/28 07:59:37;;;;;;;17.45;7.57;;;16.10;99.90;;;;;;4956219;28;20059;-65
2022/10/28 08:02:03;;;;;;;14.15;6.55;;;16.20;99.90;;;;;;4944670;29;20047;-66
2022/10/28 08:04:30;;;;;;;12.25;6.25;;;16.10;99.90;;;;;;4937493;29;20050;-65
2022/10/28 08:06:56;;;;;;;19.95;6.72;;;16.20;99.90;;;;;;4954355;28;20051;-66
2022/10/28 08:09:22;;;;;;;13.50;6.20;;;16.40;99.90;;;;;;4936216;29;20413;-66
2022/10/28 08:11:47;;;;;;;14.77;6.40;;;16.40;99.90;;;;;;4951820;29;20047;-66
2022/10/28 08:14:13;;;;;;;32.83;8.13;;;16.60;99.90;;;;;;4937956;29;20398;-66
2022/10/28 08:16:39;;;;;;;21.92;7.10;;;16.80;99.90;;;;;;4954301;29;20086;-65
2022/10/28 08:19:04;;;;;;;15.23;6.43;;;17.00;99.90;;;;;;4938411;29;20486;-66
2022/10/28 08:21:30;;;;;;;13.52;6.32;;;17.20;99.90;;;;;;4938353;29;20074;-65
2022/10/28 08:23:55;;;;;;;14.23;6.18;;;17.10;99.90;;;;;;4955459;29;20031;-66
2022/10/28 08:26:21;;;;;;;13.43;5.28;;;17.40;99.90;;;;;;4955212;28;20046;-65
2022/10/28 08:28:47;;;;;;;15.90;6.07;;;17.40;99.90;;;;;;4955810;29;20488;-65
2022/10/28 08:31:12;;;;;;;16.20;5.25;;;17.50;99.90;;;;;;4937343;29;20051;-65
2022/10/28 08:33:41;;;;;;;12.35;5.78;;;17.70;99.90;;;;;;4937572;29;20449;-65
2022/10/28 08:36:08;;;;;;;15.73;6.05;;;18.00;99.90;;;;;;4938183;29;20506;-65
2022/10/28 08:38:34;;;;;;;10.05;5.55;;;18.10;99.90;;;;;;4955324;29;20106;-66
2022/10/28 08:41:06;;;;;;;16.80;5.93;;;18.20;99.90;;;;;;4955168;29;20043;-65
2022/10/28 08:44:09;;;;;;;12.93;6.85;;;19.10;99.90;;;;;;4955465;29;20043;-66
2022/10/28 08:46:59;;;;;;;12.93;5.07;;;19.60;99.90;;;;;;4955006;29;20433;-66
2022/10/28 08:49:25;;;;;;;15.88;5.28;;;19.80;99.90;;;;;;4932957;29;20047;-65
2022/10/28 08:52:04;;;;;;;14.80;4.88;;;19.50;99.90;;;;;;4955363;29;20047;-66
2022/10/28 08:54:35;;;;;;;13.25;5.05;;;19.50;99.90;;;;;;4955469;29;20043;-66
2022/10/28 08:57:05;;;;;;;12.65;4.82;;;19.00;99.90;;;;;;4937757;29;20508;-65
2022/10/28 08:59:34;;;;;;;11.77;4.90;;;18.80;99.90;;;;;;4954991;29;20039;-68
2022/10/28 09:02:10;;;;;;;11.98;5.50;;;18.70;99.90;;;;;;4937224;29;20445;-65
2022/10/28 09:04:42;;;;;;;12.38;5.22;;;18.40;99.90;;;;;;4937168;29;20521;-66
2022/10/28 09:07:16;;;;;;;10.80;4.55;;;18.30;99.90;;;;;;4954991;29;20039;-66
2022/10/28 09:09:42;;;;;;;11.80;4.53;;;17.90;99.90;;;;;;4955299;29;20039;-66
2022/10/28 09:12:51;;;;;;;17.98;5.40;;;18.10;99.90;;;;;;4937485;29;20458;-66
2022/10/28 09:15:17;;;;;;;10.20;4.65;;;18.00;99.90;;;;;;4953845;29;20043;-65
2022/10/28 09:18:13;;;;;;;10.95;5.07;;;17.90;99.90;;;;;;4937677;29;20438;-66
2022/10/28 09:20:51;;;;;;;10.75;4.78;;;18.20;99.90;;;;;;4936589;29;20054;-66
2022/10/28 09:23:21;;;;;;;10.48;5.13;;;17.90;99.90;;;;;;4944709;28;20050;-66
2022/10/28 09:25:58;;;;;;;15.52;5.03;;;19.50;99.90;;;;;;4948302;29;20035;-67
2022/10/28 09:28:42;;;;;;;14.93;5.60;;;17.80;99.90;;;;;;4953203;28;20039;-67
2022/10/28 09:31:39;;;;;;;15.50;5.20;;;18.80;99.90;;;;;;4952524;28;20066;-66
2022/10/28 09:34:31;;;;;;;10.77;5.20;;;17.90;99.90;;;;;;4934763;28;20039;-66
2022/10/28 09:37:12;;;;;;;10.80;5.07;;;17.80;99.90;;;;;;4930574;29;20516;-66
2022/10/28 09:39:44;;;;;;;13.82;4.80;;;17.90;99.90;;;;;;4953833;28;20126;-66
2022/10/28 09:42:17;;;;;;;11.20;5.35;;;17.80;99.90;;;;;;4953544;28;20066;-66
2022/10/28 09:44:50;;;;;;;13.40;5.60;;;17.70;99.90;;;;;;4954722;28;20035;-67
2022/10/28 09:47:22;;;;;;;18.77;5.72;;;17.70;99.90;;;;;;4935437;29;20043;-67
2022/10/28 09:49:50;;;;;;;14.25;5.63;;;17.70;99.90;;;;;;4934360;28;20079;-66
2022/10/28 09:52:21;;;;;;;16.15;6.00;;;17.80;99.90;;;;;;4953674;28;20043;-66
2022/10/28 09:54:52;;;;;;;13.77;6.20;;;18.70;99.90;;;;;;4954728;29;20055;-66
2022/10/28 09:57:18;;;;;;;17.83;5.72;;;17.70;99.90;;;;;;4953771;29;20403;-67
2022/10/28 09:59:44;;;;;;;16.17;5.32;;;17.80;99.90;;;;;;4946943;28;20048;-66
2022/10/28 10:02:31;;;;;;;12.63;5.05;;;19.50;99.90;;;;;;4933342;29;20109;-66
2022/10/28 10:04:58;;;;;;;16.92;5.20;;;17.90;99.90;;;;;;4923541;29;20040;-66
2022/10/28 10:07:43;;;;;;;15.40;6.75;;;18.10;99.90;;;;;;4934221;29;20055;-66
2022/10/28 10:10:21;;;;;;;10.10;5.03;;;18.10;99.90;;;;;;4937228;29;20059;-67
2022/10/28 10:12:49;;;;;;;8.75;4.30;;;18.00;99.90;;;;;;4935643;28;20047;-66
2022/10/28 10:15:30;;;;;;;12.25;5.13;;;18.40;99.90;;;;;;4953995;28;20098;-66
2022/10/28 10:18:02;;;;;;;16.30;5.00;;;18.30;99.90;;;;;;4937416;29;20039;-66
2022/10/28 10:20:49;;;;;;;12.18;5.07;;;18.40;99.90;;;;;;4926686;29;20070;-67
2022/10/28 10:23:23;;;;;;;13.63;5.25;;;18.50;99.90;;;;;;4949190;29;20525;-67
2022/10/28 10:25:54;;;;;;;11.73;4.80;;;18.40;99.90;;;;;;4945881;29;20043;-67
2022/10/28 10:28:20;;;;;;;17.38;4.70;;;18.80;99.90;;;;;;4936401;29;20283;-67
2022/10/28 10:30:55;;;;;;;13.32;5.18;;;18.80;99.90;;;;;;4953140;29;20047;-67
2022/10/28 10:33:24;;;;;;;15.25;4.88;;;18.80;99.90;;;;;;4933007;29;20040;-67
2022/10/28 10:36:00;;;;;;;13.05;4.80;;;19.10;99.90;;;;;;4919104;29;20477;-66
2022/10/28 10:38:27;;;;;;;17.38;4.72;;;18.90;99.90;;;;;;4934639;29;20094;-67
2022/10/28 10:40:53;;;;;;;14.45;4.53;;;18.90;99.90;;;;;;4952792;29;20043;-66
2022/10/28 10:43:28;;;;;;;15.63;4.55;;;19.00;99.90;;;;;;4953456;28;20091;-66
2022/10/28 10:46:01;;;;;;;12.10;4.82;;;18.90;99.90;;;;;;4936203;29;20039;-67
2022/10/28 10:48:34;;;;;;;12.27;4.65;;;18.90;99.90;;;;;;4947624;28;20777;-66
2022/10/28 10:51:05;;;;;;;14.90;4.57;;;19.00;99.90;;;;;;4957633;29;20066;-66
2022/10/28 10:53:32;;;;;;;18.08;5.05;;;19.30;99.90;;;;;;4957300;29;20039;-66
2022/10/28 10:56:02;;;;;;;15.10;5.75;;;19.30;99.90;;;;;;4957366;29;20454;-67
2022/10/28 10:58:32;;;;;;;14.77;5.13;;;19.10;99.90;;;;;;4938971;29;20058;-66
2022/10/28 11:00:59;;;;;;;12.15;4.70;;;19.20;99.90;;;;;;4922730;29;20517;-66
2022/10/28 11:03:38;;;;;;;13.95;4.80;;;19.30;99.90;;;;;;4938982;29;20046;-66
2022/10/28 11:06:06;;;;;;;17.45;4.13;;;19.50;99.90;;;;;;4957236;29;20399;-66
2022/10/28 11:08:37;;;;;;;16.00;4.57;;;19.50;99.90;;;;;;4957102;29;20043;-66
2022/10/28 11:11:06;;;;;;;13.18;4.53;;;19.40;99.90;;;;;;4957027;29;20398;-67
2022/10/28 11:13:33;;;;;;;12.77;3.90;;;19.50;99.90;;;;;;4956968;29;20402;-67
2022/10/28 11:16:05;;;;;;;15.13;4.70;;;19.90;99.90;;;;;;4936215;29;20043;-66
2022/10/28 11:18:46;;;;;;;12.10;4.28;;;19.50;99.90;;;;;;4923528;29;20129;-66
2022/10/28 11:21:35;;;;;;;14.77;4.75;;;19.70;99.90;;;;;;4926511;29;20054;-66
2022/10/28 11:24:30;;;;;;;15.60;5.22;;;19.70;99.90;;;;;;4955199;29;20054;-66
2022/10/28 11:27:19;;;;;;;13.23;4.43;;;19.60;99.90;;;;;;4931384;29;20047;-66
2022/10/28 11:29:45;;;;;;;16.23;4.13;;;19.80;99.90;;;;;;4952461;28;20102;-67
2022/10/28 11:32:31;;;;;;;17.52;4.80;;;19.50;99.90;;;;;;4953629;28;20390;-67
2022/10/28 11:35:14;;;;;;;17.77;5.05;;;19.70;99.90;;;;;;4954493;28;20405;-67
2022/10/28 11:38:16;;;;;;;11.48;4.10;;;19.90;99.90;;;;;;4937126;28;20043;-67
2022/10/28 11:41:11;;;;;;;16.13;5.03;;;19.80;99.90;;;;;;4938334;28;20122;-67
2022/10/28 11:43:50;;;;;;;14.05;4.90;;;20.50;99.90;;;;;;4928002;29;20513;-66
2022/10/28 11:46:37;;;;;;;14.98;4.55;;;19.90;99.90;;;;;;4934994;29;20066;-66
2022/10/28 11:49:34;;;;;;;17.10;5.28;;;19.70;99.90;;;;;;4918826;29;20094;-67
2022/10/28 11:52:33;;;;;;;13.30;4.38;;;20.00;99.90;;;;;;4936357;29;20075;-67
2022/10/28 11:55:19;;;;;;;16.35;4.53;;;19.90;99.90;;;;;;4955542;29;20510;-67
2022/10/28 11:58:10;;;;;;;16.38;4.80;;;18.60;99.90;;;;;;4900100;29;20047;-67
2022/10/28 12:00:45;;;;;;;11.93;4.28;;;20.00;99.90;;;;;;4913179;29;20412;-65
2022/10/28 12:03:36;;;;;;;15.70;4.95;;;19.90;99.90;;;;;;4951028;29;20046;-66
2022/10/28 12:06:27;;;;;;;10.63;4.28;;;19.90;99.90;;;;;;4938266;29;20074;-66
2022/10/28 12:09:17;;;;;;;14.05;4.40;;;19.80;99.90;;;;;;4922207;29;20178;-66
2022/10/28 12:11:55;;;;;;;18.05;4.47;;;19.90;99.90;;;;;;4930982;29;20051;-67
2022/10/28 12:14:28;;;;;;;11.52;4.53;;;19.50;99.90;;;;;;4942366;29;20054;-66
2022/10/28 12:17:05;;;;;;;15.80;5.40;;;19.70;99.90;;;;;;4954428;29;20040;-66
2022/10/28 12:19:33;;;;;;;16.42;4.65;;;19.50;99.90;;;;;;4909873;29;20043;-66
2022/10/28 12:22:05;;;;;;;16.73;6.38;;;19.80;99.90;;;;;;4937922;29;20090;-65
2022/10/28 12:24:35;;;;;;;17.88;5.15;;;19.40;99.90;;;;;;4931691;29;20070;-66
2022/10/28 12:27:11;;;;;;;12.50;4.30;;;19.80;99.90;;;;;;4930658;29;20101;-66
2022/10/28 12:29:41;;;;;;;15.73;5.25;;;19.60;99.90;;;;;;4919618;29;20058;-65
2022/10/28 12:32:13;;;;;;;12.30;4.72;;;19.90;99.90;;;;;;4952473;29;20449;-66
2022/10/28 12:34:47;;;;;;;13.27;4.63;;;19.80;99.90;;;;;;4937830;29;20050;-66
2022/10/28 12:37:20;;;;;;;21.45;5.40;;;19.80;99.90;;;;;;4937951;29;20050;-66
2022/10/28 12:40:11;;;;;;;18.90;4.65;;;19.90;99.90;;;;;;4951777;28;20493;-66
2022/10/28 12:42:51;;;;;;;18.27;4.95;;;19.70;99.90;;;;;;4936923;29;20051;-66
2022/10/28 12:45:19;;;;;;;11.35;5.03;;;19.90;99.90;;;;;;4951522;28;20466;-66
2022/10/28 12:48:30;;;;;;;16.80;5.05;;;19.80;99.90;;;;;;4932532;29;20505;-66
2022/10/28 12:51:04;;;;;;;13.15;5.10;;;19.80;99.90;;;;;;4931782;28;20055;-66
2022/10/28 12:53:53;;;;;;;15.20;5.35;;;19.90;99.90;;;;;;4931218;29;20150;-67
2022/10/28 12:56:33;;;;;;;18.10;5.57;;;19.80;99.90;;;;;;4915969;28;20426;-67
2022/10/28 12:59:17;;;;;;;15.48;5.10;;;19.70;99.90;;;;;;4953252;28;20486;-68